Time,TemperatureF,DewpointF,PressureIn,WindDirection,WindDirectionDegrees,WindSpeedMPH,WindSpeedGustMPH,Humidity,HourlyPrecipIn,Conditions,Clouds,dailyrainin,SoftwareType,DateUTC
2013-01-26 00:10:00,52.3,52.0,30.23,West,265,0.0,0.0,99,0.00,,,0.00,Wunderground v.1.13,2013-01-26 05:10:00,
2013-01-26 00:20:00,52.5,52.2,30.23,West,265,2.0,2.0,99,0.00,,,0.00,Wunderground v.1.13,2013-01-26 05:20:00,
2013-01-26 00:30:00,52.2,51.9,30.23,West,265,0.0,0.0,99,0.00,,,0.00,Wunderground v.1.13,2013-01-26 05:30:00,
2013-01-26 00:40:00,52.0,51.7,30.23,West,265,0.0,0.0,99,0.00,,,0.00,Wunderground v.1.13,2013-01-26 05:40:00,
2013-01-26 00:50:00,52.5,52.2,30.23,West,265,0.0,0.0,99,0.00,,,0.00,Wunderground v.1.13,2013-01-26 05:50:00,
2013-01-26 01:00:00,52.3,52.0,30.24,N/A,-737280,0.0,0.0,99,0.00,,,0.00,Wunderground v.1.13,2013-01-26 06:00:00,
2013-01-26 01:10:00,54.2,53.9,30.24,West,265,0.0,0.0,99,0.00,,,0.00,Wunderground v.1.13,2013-01-26 06:10:00,
2013-01-26 01:20:00,55.0,54.7,30.24,West,265,0.0,0.0,99,0.00,,,0.00,Wunderground v.1.13,2013-01-26 06:20:00,
2013-01-26 01:30:00,55.1,54.8,30.24,West,265,0.0,0.0,99,0.00,,,0.00,Wunderground v.1.13,2013-01-26 06:30:00,
2013-01-26 01:40:00,55.1,54.8,30.24,West,265,0.0,0.0,99,0.00,,,0.00,Wunderground v.1.13,2013-01-26 06:40:00,
2013-01-26 01:50:00,55.4,55.1,30.23,West,265,0.0,0.0,99,0.00,,,0.00,Wunderground v.1.13,2013-01-26 06:50:00,
2013-01-26 02:00:00,55.6,55.3,30.23,West,265,0.0,0.0,99,0.00,,,0.00,Wunderground v.1.13,2013-01-26 07:00:00,
2013-01-26 02:10:00,55.6,55.3,30.23,West,265,0.0,0.0,99,0.00,,,0.00,Wunderground v.1.13,2013-01-26 07:10:00,
2013-01-26 02:20:00,57.2,57.2,30.22,West,265,0.0,0.0,100,0.00,,,0.00,Wunderground v.1.13,2013-01-26 07:20:00,
2013-01-26 02:30:00,57.5,57.5,30.22,West,265,0.0,0.0,100,0.00,,,0.00,Wunderground v.1.13,2013-01-26 07:30:00,
2013-01-26 02:40:00,57.5,57.5,30.22,West,265,0.0,0.0,100,0.00,,,0.00,Wunderground v.1.13,2013-01-26 07:40:00,
2013-01-26 02:50:00,57.5,57.5,30.22,West,265,0.0,0.0,100,0.00,,,0.00,Wunderground v.1.13,2013-01-26 07:50:00,
2013-01-26 03:00:00,57.6,57.6,30.21,West,265,0.0,0.0,100,0.00,,,0.00,Wunderground v.1.13,2013-01-26 08:00:00,
2013-01-26 03:10:00,57.6,57.6,30.21,West,265,0.0,0.0,100,0.00,,,0.00,Wunderground v.1.13,2013-01-26 08:10:00,
2013-01-26 03:20:00,-999.9,-99.9,30.21,North,32767,-999.0,0.0,255,-99.99,,,0.00,Wunderground v.1.13,2013-01-26 08:20:00,
2013-01-26 03:30:00,56.3,-99.9,30.20,West,265,0.0,0.0,255,0.00,,,0.00,Wunderground v.1.13,2013-01-26 08:30:00,
2013-01-26 03:40:00,55.9,55.9,30.20,West,265,0.0,0.0,100,0.00,,,0.00,Wunderground v.1.13,2013-01-26 08:40:00,
2013-01-26 03:50:00,55.3,55.3,30.20,West,265,0.0,0.0,100,0.00,,,0.00,Wunderground v.1.13,2013-01-26 08:50:00,
2013-01-26 04:00:00,55.0,55.0,30.20,West,265,0.0,0.0,100,0.00,,,0.00,Wunderground v.1.13,2013-01-26 09:00:00,
2013-01-26 04:10:00,54.5,54.5,30.20,West,265,0.0,0.0,100,0.00,,,0.00,Wunderground v.1.13,2013-01-26 09:10:00,
2013-01-26 04:20:00,54.1,54.1,30.20,West,265,0.0,0.0,100,0.00,,,0.00,Wunderground v.1.13,2013-01-26 09:20:00,
2013-01-26 04:30:00,53.5,53.5,30.20,West,265,0.0,0.0,100,0.00,,,0.00,Wunderground v.1.13,2013-01-26 09:30:00,
2013-01-26 04:40:00,53.1,53.1,30.20,West,265,0.0,0.0,100,0.00,,,0.00,Wunderground v.1.13,2013-01-26 09:40:00,
2013-01-26 04:50:00,52.9,52.9,30.21,West,265,0.0,0.0,100,0.00,,,0.00,Wunderground v.1.13,2013-01-26 09:50:00,
2013-01-26 05:00:00,53.1,53.1,30.20,West,265,0.0,0.0,100,0.00,,,0.00,Wunderground v.1.13,2013-01-26 10:00:00,
2013-01-26 05:10:00,53.5,53.5,30.20,West,265,0.0,0.0,100,0.00,,,0.00,Wunderground v.1.13,2013-01-26 10:10:00,
2013-01-26 05:20:00,52.9,52.9,30.20,West,265,0.0,0.0,100,0.00,,,0.00,Wunderground v.1.13,2013-01-26 10:20:00,
2013-01-26 05:30:00,52.6,52.6,30.21,West,265,0.0,0.0,100,0.00,,,0.00,Wunderground v.1.13,2013-01-26 10:30:00,
2013-01-26 05:40:00,52.8,52.8,30.21,West,265,0.0,0.0,100,0.00,,,0.00,Wunderground v.1.13,2013-01-26 10:40:00,
2013-01-26 05:50:00,52.8,52.8,30.21,West,265,0.0,0.0,100,0.00,,,0.00,Wunderground v.1.13,2013-01-26 10:50:00,
2013-01-26 06:00:00,52.0,52.0,30.22,West,265,0.0,0.0,100,0.00,,,0.00,Wunderground v.1.13,2013-01-26 11:00:00,
2013-01-26 06:10:00,51.9,51.9,30.22,West,265,0.0,0.0,100,0.00,,,0.00,Wunderground v.1.13,2013-01-26 11:10:00,
2013-01-26 06:20:00,51.7,51.7,30.22,West,265,0.0,0.0,100,0.00,,,0.00,Wunderground v.1.13,2013-01-26 11:20:00,
2013-01-26 06:30:00,51.7,51.7,30.22,West,265,0.0,0.0,100,0.00,,,0.00,Wunderground v.1.13,2013-01-26 11:30:00,
2013-01-26 06:40:00,50.8,50.8,30.22,West,265,0.0,0.0,100,0.00,,,0.00,Wunderground v.1.13,2013-01-26 11:40:00,
2013-01-26 06:50:00,50.7,50.7,30.22,West,265,0.0,0.0,100,0.00,,,0.00,Wunderground v.1.13,2013-01-26 11:50:00,
2013-01-26 07:00:00,51.0,51.0,30.23,West,265,0.0,0.0,100,0.00,,,0.00,Wunderground v.1.13,2013-01-26 12:00:00,
2013-01-26 07:10:00,51.0,51.0,30.23,West,265,0.0,0.0,100,0.00,,,0.00,Wunderground v.1.13,2013-01-26 12:10:00,
2013-01-26 07:20:00,49.8,49.8,30.23,West,265,0.0,0.0,100,0.00,,,0.00,Wunderground v.1.13,2013-01-26 12:20:00,
2013-01-26 07:30:00,49.6,49.6,30.24,West,265,0.0,0.0,100,0.00,,,0.00,Wunderground v.1.13,2013-01-26 12:30:00,
2013-01-26 07:40:00,49.6,49.6,30.24,West,265,0.0,0.0,100,0.00,,,0.00,Wunderground v.1.13,2013-01-26 12:40:00,
2013-01-26 07:50:00,49.6,49.6,30.24,West,265,0.0,0.0,100,0.00,,,0.00,Wunderground v.1.13,2013-01-26 12:50:00,
2013-01-26 08:00:00,49.9,49.9,30.25,West,265,0.0,0.0,100,0.00,,,0.00,Wunderground v.1.13,2013-01-26 13:00:00,
2013-01-26 08:10:00,-999.9,-99.9,30.25,North,32767,-999.0,0.0,255,-99.99,,,0.00,Wunderground v.1.13,2013-01-26 13:10:00,
2013-01-26 08:20:00,-999.9,-99.9,30.25,North,32767,-999.0,0.0,255,-99.99,,,0.00,Wunderground v.1.13,2013-01-26 13:20:00,
2013-01-26 08:30:00,53.8,-99.9,30.25,West,265,0.0,0.0,255,0.00,,,0.00,Wunderground v.1.13,2013-01-26 13:30:00,
2013-01-26 08:40:00,55.7,55.7,30.25,West,265,0.0,0.0,100,0.00,,,0.00,Wunderground v.1.13,2013-01-26 13:40:00,
2013-01-26 08:50:00,57.6,57.6,30.25,West,265,0.0,0.0,100,0.00,,,0.00,Wunderground v.1.13,2013-01-26 13:50:00,
2013-01-26 09:00:00,59.0,59.0,30.26,West,265,0.0,0.0,100,0.00,,,0.00,Wunderground v.1.13,2013-01-26 14:00:00,
2013-01-26 09:10:00,59.0,59.0,30.26,West,265,0.0,0.0,100,0.00,,,0.00,Wunderground v.1.13,2013-01-26 14:10:00,
2013-01-26 09:20:00,59.0,59.0,30.26,West,265,0.0,0.0,100,0.00,,,0.00,Wunderground v.1.13,2013-01-26 14:20:00,
2013-01-26 09:30:00,-999.9,-99.9,30.27,North,32767,-999.0,0.0,255,-99.99,,,0.00,Wunderground v.1.13,2013-01-26 14:30:00,
2013-01-26 09:40:00,-999.9,-99.9,30.27,North,32767,-999.0,0.0,255,-99.99,,,0.00,Wunderground v.1.13,2013-01-26 14:40:00,
2013-01-26 09:50:00,-999.9,-99.9,30.27,North,32767,-999.0,0.0,255,-99.99,,,0.00,Wunderground v.1.13,2013-01-26 14:50:00,
2013-01-26 10:00:00,-999.9,-99.9,30.28,North,32767,-999.0,0.0,255,-99.99,,,0.00,Wunderground v.1.13,2013-01-26 15:00:00,
2013-01-26 10:10:00,-999.9,-99.9,30.28,North,32767,-999.0,0.0,255,-99.99,,,0.00,Wunderground v.1.13,2013-01-26 15:10:00,
2013-01-26 10:20:00,-999.9,-99.9,30.28,North,32767,-999.0,0.0,255,-99.99,,,0.00,Wunderground v.1.13,2013-01-26 15:20:00,
2013-01-26 10:30:00,-999.9,-99.9,30.28,North,32767,-999.0,0.0,255,-99.99,,,0.00,Wunderground v.1.13,2013-01-26 15:30:00,
2013-01-26 10:40:00,-999.9,-99.9,30.28,North,32767,-999.0,0.0,255,-99.99,,,0.00,Wunderground v.1.13,2013-01-26 15:40:00,
2013-01-26 10:50:00,-999.9,-99.9,30.28,North,32767,-999.0,0.0,255,-99.99,,,0.00,Wunderground v.1.13,2013-01-26 15:50:00,
2013-01-26 11:00:00,-999.9,-99.9,30.28,North,32767,-999.0,0.0,255,-99.99,,,0.00,Wunderground v.1.13,2013-01-26 16:00:00,
2013-01-26 11:10:00,-999.9,-99.9,30.28,North,32767,-999.0,0.0,255,-99.99,,,0.00,Wunderground v.1.13,2013-01-26 16:10:00,
2013-01-26 11:20:00,-999.9,-99.9,30.28,North,32767,-999.0,0.0,255,-99.99,,,0.00,Wunderground v.1.13,2013-01-26 16:20:00,
2013-01-26 11:30:00,-999.9,-99.9,30.28,North,32767,-999.0,0.0,255,-99.99,,,0.00,Wunderground v.1.13,2013-01-26 16:30:00,
2013-01-26 11:40:00,70.6,57.8,30.28,NW,325,0.0,0.0,64,0.00,,,0.00,Wunderground v.1.13,2013-01-26 16:40:00,
2013-01-26 11:50:00,70.6,57.8,30.27,WNW,292,0.0,0.0,64,0.00,,,0.00,Wunderground v.1.13,2013-01-26 16:50:00,
2013-01-26 12:00:00,70.1,57.8,30.27,WSW,253,3.0,6.0,65,0.00,,,0.00,Wunderground v.1.13,2013-01-26 17:00:00,
2013-01-26 12:10:00,70.6,58.3,30.27,WSW,253,0.0,0.0,65,0.00,,,0.00,Wunderground v.1.13,2013-01-26 17:10:00,
2013-01-26 12:20:00,70.6,58.3,30.26,West,263,0.0,0.0,65,0.00,,,0.00,Wunderground v.1.13,2013-01-26 17:20:00,
2013-01-26 12:30:00,72.5,60.1,30.25,WNW,294,1.0,6.0,65,0.00,,,0.00,Wunderground v.1.13,2013-01-26 17:30:00,
2013-01-26 12:40:00,72.5,60.1,30.25,NW,306,4.0,4.0,65,0.00,,,0.00,Wunderground v.1.13,2013-01-26 17:40:00,
2013-01-26 12:50:00,70.4,58.1,30.25,WNW,296,4.0,4.0,65,0.00,,,0.00,Wunderground v.1.13,2013-01-26 17:50:00,
2013-01-26 13:00:00,70.9,58.5,30.24,WNW,289,1.0,1.0,65,0.00,,,0.00,Wunderground v.1.13,2013-01-26 18:00:00,
2013-01-26 13:10:00,71.5,58.7,30.24,NNW,344,1.0,6.0,64,0.00,,,0.00,Wunderground v.1.13,2013-01-26 18:10:00,
2013-01-26 13:20:00,71.3,59.4,30.23,North,349,2.0,2.0,66,0.00,,,0.00,Wunderground v.1.13,2013-01-26 18:20:00,
2013-01-26 13:30:00,71.1,58.7,30.22,NNW,330,0.0,0.0,65,0.00,,,0.00,Wunderground v.1.13,2013-01-26 18:30:00,
2013-01-26 13:40:00,71.1,58.7,30.22,NW,308,1.0,6.0,65,0.00,,,0.00,Wunderground v.1.13,2013-01-26 18:40:00,
2013-01-26 13:50:00,70.8,59.3,30.21,NNW,335,2.0,2.0,67,0.00,,,0.00,Wunderground v.1.13,2013-01-26 18:50:00,
2013-01-26 14:00:00,71.1,58.3,30.21,West,264,0.0,0.0,64,0.00,,,0.00,Wunderground v.1.13,2013-01-26 19:00:00,
2013-01-26 14:10:00,71.6,58.8,30.21,NNW,330,0.0,0.0,64,0.00,,,0.00,Wunderground v.1.13,2013-01-26 19:10:00,
2013-01-26 14:20:00,71.3,58.5,30.20,NW,316,0.0,0.0,64,0.00,,,0.00,Wunderground v.1.13,2013-01-26 19:20:00,
2013-01-26 14:30:00,71.3,59.8,30.20,NW,305,0.0,0.0,67,0.00,,,0.00,Wunderground v.1.13,2013-01-26 19:30:00,
2013-01-26 14:40:00,71.3,58.9,30.20,NNW,336,0.0,7.0,65,0.00,,,0.00,Wunderground v.1.13,2013-01-26 19:40:00,
2013-01-26 14:50:00,71.3,59.4,30.19,North,0,1.0,1.0,66,0.00,,,0.00,Wunderground v.1.13,2013-01-26 19:50:00,
2013-01-26 15:00:00,71.8,59.4,30.19,NNW,337,0.0,0.0,65,0.00,,,0.00,Wunderground v.1.13,2013-01-26 20:00:00,
2013-01-26 15:10:00,71.8,59.4,30.19,NW,320,1.0,1.0,65,0.00,,,0.00,Wunderground v.1.13,2013-01-26 20:10:00,
2013-01-26 15:20:00,70.8,59.7,30.19,NNW,333,0.0,0.0,68,0.00,,,0.00,Wunderground v.1.13,2013-01-26 20:20:00,
2013-01-26 15:30:00,70.8,59.3,30.18,NNW,335,1.0,1.0,67,0.00,,,0.00,Wunderground v.1.13,2013-01-26 20:30:00,
2013-01-26 15:40:00,70.9,59.8,30.18,North,0,0.0,0.0,68,0.00,,,0.00,Wunderground v.1.13,2013-01-26 20:40:00,
2013-01-26 15:50:00,71.6,59.6,30.19,North,359,0.0,0.0,66,0.00,,,0.00,Wunderground v.1.13,2013-01-26 20:50:00,
2013-01-26 16:00:00,71.3,60.2,30.19,NNW,335,0.0,0.0,68,0.00,,,0.00,Wunderground v.1.13,2013-01-26 21:00:00,
2013-01-26 16:10:00,71.1,60.4,30.19,NW,322,0.0,0.0,69,0.00,,,0.00,Wunderground v.1.13,2013-01-26 21:10:00,
2013-01-26 16:20:00,70.6,60.3,30.19,NW,325,0.0,0.0,70,0.00,,,0.00,Wunderground v.1.13,2013-01-26 21:20:00,
2013-01-26 16:30:00,70.1,60.3,30.19,NW,325,1.0,1.0,71,0.00,,,0.00,Wunderground v.1.13,2013-01-26 21:30:00,
2013-01-26 16:40:00,69.8,60.4,30.19,NNW,336,0.0,0.0,72,0.00,,,0.00,Wunderground v.1.13,2013-01-26 21:40:00,
2013-01-26 16:50:00,69.8,60.4,30.19,NNW,332,0.0,0.0,72,0.00,,,0.00,Wunderground v.1.13,2013-01-26 21:50:00,
2013-01-26 17:00:00,69.6,60.2,30.19,North,354,0.0,0.0,72,0.00,,,0.00,Wunderground v.1.13,2013-01-26 22:00:00,
2013-01-26 17:10:00,69.6,60.2,30.19,North,354,0.0,0.0,72,0.00,,,0.00,Wunderground v.1.13,2013-01-26 22:10:00,
2013-01-26 17:20:00,-999.9,-99.9,30.20,North,32767,-999.0,0.0,255,-99.99,,,0.00,Wunderground v.1.13,2013-01-26 22:20:00,
2013-01-26 17:30:00,68.4,-99.9,30.20,North,354,2.0,2.0,255,0.00,,,0.00,Wunderground v.1.13,2013-01-26 22:30:00,
2013-01-26 17:40:00,67.8,60.3,30.20,North,354,0.0,0.0,77,0.00,,,0.00,Wunderground v.1.13,2013-01-26 22:40:00,
2013-01-26 17:50:00,67.4,60.3,30.20,North,354,0.0,0.0,78,0.00,,,0.00,Wunderground v.1.13,2013-01-26 22:50:00,
2013-01-26 18:00:00,66.4,60.4,30.20,North,354,0.0,0.0,81,0.00,,,0.00,Wunderground v.1.13,2013-01-26 23:00:00,
2013-01-26 18:10:00,65.8,60.5,30.20,North,354,0.0,0.0,83,0.00,,,0.00,Wunderground v.1.13,2013-01-26 23:10:00,
2013-01-26 18:20:00,65.3,60.3,30.20,North,354,0.0,0.0,84,0.00,,,0.00,Wunderground v.1.13,2013-01-26 23:20:00,
2013-01-26 18:30:00,64.5,59.9,30.20,North,354,0.0,0.0,85,0.00,,,0.00,Wunderground v.1.13,2013-01-26 23:30:00,
2013-01-26 18:40:00,63.7,59.4,30.20,North,354,0.0,0.0,86,0.00,,,0.00,Wunderground v.1.13,2013-01-26 23:40:00,
2013-01-26 18:50:00,62.9,59.0,30.21,North,354,0.0,0.0,87,0.00,,,0.00,Wunderground v.1.13,2013-01-26 23:50:00,
2013-01-26 19:00:00,62.1,58.8,30.20,North,354,0.0,0.0,89,0.00,,,0.00,Wunderground v.1.13,2013-01-27 00:00:00,
2013-01-26 19:10:00,61.6,58.3,30.20,North,354,0.0,0.0,89,0.00,,,0.00,Wunderground v.1.13,2013-01-27 00:10:00,
2013-01-26 19:20:00,61.0,58.7,30.21,North,354,0.0,0.0,92,0.00,,,0.00,Wunderground v.1.13,2013-01-27 00:20:00,
2013-01-26 19:30:00,60.7,58.7,30.21,North,354,0.0,0.0,93,0.00,,,0.00,Wunderground v.1.13,2013-01-27 00:30:00,
2013-01-26 19:40:00,60.5,58.8,30.21,North,354,0.0,0.0,94,0.00,,,0.00,Wunderground v.1.13,2013-01-27 00:40:00,
2013-01-26 19:50:00,60.4,59.0,30.21,North,354,0.0,0.0,95,0.00,,,0.00,Wunderground v.1.13,2013-01-27 00:50:00,
2013-01-26 20:00:00,60.1,58.7,30.21,North,354,0.0,0.0,95,0.00,,,0.00,Wunderground v.1.13,2013-01-27 01:00:00,
2013-01-26 20:10:00,60.1,58.7,30.21,North,354,0.0,0.0,95,0.00,,,0.00,Wunderground v.1.13,2013-01-27 01:10:00,
2013-01-26 20:20:00,59.9,58.5,30.22,North,354,0.0,0.0,95,0.00,,,0.00,Wunderground v.1.13,2013-01-27 01:20:00,
2013-01-26 20:30:00,59.8,58.7,30.22,North,354,0.0,0.0,96,0.00,,,0.00,Wunderground v.1.13,2013-01-27 01:30:00,
2013-01-26 20:40:00,59.5,58.4,30.22,North,354,0.0,0.0,96,0.00,,,0.00,Wunderground v.1.13,2013-01-27 01:40:00,
2013-01-26 20:50:00,59.5,58.6,30.22,North,354,0.0,0.0,97,0.00,,,0.00,Wunderground v.1.13,2013-01-27 01:50:00,
2013-01-26 21:00:00,58.9,58.1,30.22,North,354,0.0,0.0,97,0.00,,,0.00,Wunderground v.1.13,2013-01-27 02:00:00,
2013-01-26 21:10:00,58.7,57.9,30.22,North,354,0.0,0.0,97,0.00,,,0.00,Wunderground v.1.13,2013-01-27 02:10:00,
2013-01-26 21:20:00,58.0,57.2,30.22,North,354,0.0,0.0,97,0.00,,,0.00,Wunderground v.1.13,2013-01-27 02:20:00,
2013-01-26 21:30:00,58.0,57.2,30.22,North,354,0.0,0.0,97,0.00,,,0.00,Wunderground v.1.13,2013-01-27 02:30:00,
2013-01-26 21:40:00,58.0,57.2,30.22,North,354,0.0,0.0,97,0.00,,,0.00,Wunderground v.1.13,2013-01-27 02:40:00,
2013-01-26 21:50:00,57.5,56.9,30.22,North,354,0.0,0.0,98,0.00,,,0.00,Wunderground v.1.13,2013-01-27 02:50:00,
2013-01-26 22:00:00,57.0,56.4,30.23,North,354,0.0,0.0,98,0.00,,,0.00,Wunderground v.1.13,2013-01-27 03:00:00,
2013-01-26 22:10:00,57.0,56.4,30.23,North,354,0.0,0.0,98,0.00,,,0.00,Wunderground v.1.13,2013-01-27 03:10:00,
2013-01-26 22:20:00,56.6,56.0,30.23,North,354,0.0,0.0,98,0.00,,,0.00,Wunderground v.1.13,2013-01-27 03:20:00,
2013-01-26 22:30:00,56.5,55.9,30.23,North,354,0.0,0.0,98,0.00,,,0.00,Wunderground v.1.13,2013-01-27 03:30:00,
2013-01-26 22:40:00,56.3,55.7,30.23,North,354,0.0,0.0,98,0.00,,,0.00,Wunderground v.1.13,2013-01-27 03:40:00,
2013-01-26 22:50:00,56.2,55.6,30.23,North,354,0.0,0.0,98,0.00,,,0.00,Wunderground v.1.13,2013-01-27 03:50:00,
2013-01-26 23:00:00,56.2,55.6,30.24,North,354,0.0,0.0,98,0.00,,,0.00,Wunderground v.1.13,2013-01-27 04:00:00,
2013-01-26 23:10:00,56.2,55.6,30.24,North,354,0.0,0.0,98,0.00,,,0.00,Wunderground v.1.13,2013-01-27 04:10:00,
2013-01-26 23:20:00,-999.9,-99.9,30.23,North,32767,-999.0,0.0,255,-99.99,,,0.00,Wunderground v.1.13,2013-01-27 04:20:00,
2013-01-26 23:30:00,-999.9,-99.9,30.23,North,32767,-999.0,0.0,255,-99.99,,,0.00,Wunderground v.1.13,2013-01-27 04:30:00,
2013-01-26 23:40:00,-999.9,-99.9,30.23,North,32767,-999.0,0.0,255,-99.99,,,0.00,Wunderground v.1.13,2013-01-27 04:40:00,
2013-01-26 23:50:00,-999.9,-99.9,30.23,North,32767,-999.0,0.0,255,-99.99,,,0.00,Wunderground v.1.13,2013-01-27 04:50:00,